createdAt,value
2018-08-13T00:00:12.642Z,0.00
2018-08-13T00:01:12.637Z,0.00
2018-08-13T00:02:12.628Z,0.00
2018-08-13T00:03:12.622Z,0.00
2018-08-13T00:04:12.614Z,0.00
2018-08-13T00:05:12.604Z,0.00
2018-08-13T00:06:12.597Z,0.00
2018-08-13T00:07:12.588Z,0.00
2018-08-13T00:08:12.581Z,0.00
2018-08-13T00:09:12.571Z,0.00
2018-08-13T00:10:12.562Z,0.00
2018-08-13T00:11:12.560Z,0.00
2018-08-13T00:12:12.551Z,0.00
2018-08-13T00:13:12.543Z,0.00
2018-08-13T00:14:12.538Z,0.00
2018-08-13T00:15:12.532Z,0.00
2018-08-13T00:16:12.520Z,0.00
2018-08-13T00:17:12.510Z,0.00
2018-08-13T00:18:12.514Z,0.00
2018-08-13T00:19:12.497Z,0.00
2018-08-13T00:20:12.486Z,0.00
2018-08-13T00:21:12.480Z,0.00
2018-08-13T00:22:12.476Z,0.00
2018-08-13T00:23:12.461Z,0.00
2018-08-13T00:24:12.460Z,0.00
2018-08-13T00:25:12.445Z,0.00
2018-08-13T00:26:12.440Z,0.00
2018-08-13T00:27:12.430Z,0.00
2018-08-13T00:28:12.428Z,0.00
2018-08-13T00:29:12.413Z,0.00
2018-08-13T00:30:12.411Z,0.00
2018-08-13T00:31:12.397Z,0.00
2018-08-13T00:32:12.394Z,0.00
2018-08-13T00:33:12.386Z,0.00
2018-08-13T00:34:12.379Z,0.00
2018-08-13T00:35:12.369Z,0.00
2018-08-13T00:36:12.358Z,0.00
2018-08-13T00:37:12.353Z,0.00
2018-08-13T00:38:12.349Z,0.00
2018-08-13T00:39:12.340Z,0.00
2018-08-13T00:40:12.330Z,0.00
2018-08-13T00:41:12.328Z,0.00
2018-08-13T00:42:12.319Z,0.00
2018-08-13T00:43:12.312Z,0.00
2018-08-13T00:44:12.297Z,0.00
2018-08-13T00:45:12.291Z,0.00
2018-08-13T00:46:12.288Z,0.00
2018-08-13T00:47:12.277Z,0.00
2018-08-13T00:48:12.274Z,0.00
2018-08-13T00:49:12.259Z,0.00
2018-08-13T00:50:12.255Z,0.00
2018-08-13T00:51:12.248Z,0.00
2018-08-13T00:52:12.235Z,0.00
2018-08-13T00:53:12.234Z,0.00
2018-08-13T00:54:12.219Z,0.00
2018-08-13T00:55:12.216Z,0.00
2018-08-13T00:56:12.204Z,0.00
2018-08-13T00:57:12.196Z,0.00
2018-08-13T00:58:12.196Z,0.00
2018-08-13T00:59:12.201Z,0.00
2018-08-13T01:00:12.178Z,0.00
2018-08-13T01:01:12.170Z,0.00
2018-08-13T01:02:12.159Z,0.00
2018-08-13T01:03:12.148Z,0.00
2018-08-13T01:04:12.144Z,0.00
2018-08-13T01:05:12.134Z,0.00
2018-08-13T01:06:12.121Z,0.00
2018-08-13T01:07:12.119Z,0.00
2018-08-13T01:08:12.109Z,0.00
2018-08-13T01:09:12.103Z,0.00
2018-08-13T01:10:12.092Z,0.00
2018-08-13T01:11:12.087Z,0.00
2018-08-13T01:12:12.076Z,0.00
2018-08-13T01:13:12.074Z,0.00
2018-08-13T01:14:12.067Z,0.00
2018-08-13T01:15:12.055Z,0.00
2018-08-13T01:16:12.045Z,0.00
2018-08-13T01:17:12.033Z,0.00
2018-08-13T01:18:12.037Z,0.00
2018-08-13T01:19:12.028Z,0.00
2018-08-13T01:20:12.016Z,0.00
2018-08-13T01:21:12.002Z,0.00
2018-08-13T01:22:11.998Z,0.00
2018-08-13T01:23:11.997Z,0.00
2018-08-13T01:24:11.978Z,0.00
2018-08-13T01:25:11.976Z,0.00
2018-08-13T01:26:11.967Z,0.00
2018-08-13T01:27:11.963Z,0.00
2018-08-13T01:28:11.951Z,0.00
2018-08-13T01:29:11.947Z,0.00
2018-08-13T01:30:11.935Z,0.00
2018-08-13T01:31:11.925Z,0.00
2018-08-13T01:32:11.917Z,0.00
2018-08-13T01:33:11.911Z,0.00
2018-08-13T01:34:11.902Z,0.00
2018-08-13T01:35:11.896Z,0.00
2018-08-13T01:36:11.880Z,0.00
2018-08-13T01:37:11.876Z,0.00
2018-08-13T01:38:11.872Z,0.00
2018-08-13T01:39:11.864Z,0.00
2018-08-13T01:40:11.853Z,0.00
2018-08-13T01:41:11.853Z,0.00
2018-08-13T01:42:11.844Z,0.00
2018-08-13T01:43:11.829Z,0.00
2018-08-13T01:44:11.823Z,0.00
2018-08-13T01:45:11.819Z,0.00
2018-08-13T01:46:11.811Z,0.00
2018-08-13T01:47:11.803Z,0.00
2018-08-13T01:48:11.789Z,0.00
2018-08-13T01:49:11.787Z,0.00
2018-08-13T01:50:11.773Z,0.00
2018-08-13T01:51:11.768Z,0.00
2018-08-13T01:52:11.760Z,0.00
2018-08-13T01:53:11.749Z,0.00
2018-08-13T01:54:11.742Z,0.00
2018-08-13T01:55:11.736Z,0.00
2018-08-13T01:56:11.728Z,0.00
2018-08-13T01:57:11.720Z,0.00
2018-08-13T01:58:11.711Z,0.00
2018-08-13T01:59:11.703Z,0.00
2018-08-13T02:00:11.707Z,0.00
2018-08-13T02:01:11.684Z,0.00
2018-08-13T02:02:11.680Z,0.00
2018-08-13T02:03:11.672Z,0.00
2018-08-13T02:04:11.664Z,0.00
2018-08-13T02:05:11.656Z,0.00
2018-08-13T02:06:11.649Z,0.00
2018-08-13T02:07:11.642Z,0.00
2018-08-13T02:08:11.631Z,0.00
2018-08-13T02:09:11.627Z,0.00
2018-08-13T02:10:11.622Z,0.00
2018-08-13T02:11:11.610Z,0.00
2018-08-13T02:12:11.594Z,0.00
2018-08-13T02:13:11.594Z,0.00
2018-08-13T02:14:11.588Z,0.00
2018-08-13T02:15:11.575Z,0.00
2018-08-13T02:16:11.564Z,0.00
2018-08-13T02:17:11.555Z,0.00
2018-08-13T02:18:11.545Z,0.00
2018-08-13T02:19:11.543Z,0.00
2018-08-13T02:20:11.530Z,0.00
2018-08-13T02:21:11.526Z,0.00
2018-08-13T02:22:11.520Z,0.00
2018-08-13T02:23:11.503Z,0.00
2018-08-13T02:24:11.544Z,0.00
2018-08-13T02:25:11.496Z,0.00
2018-08-13T02:26:11.484Z,0.00
2018-08-13T02:27:11.475Z,0.00
2018-08-13T02:28:11.468Z,0.00
2018-08-13T02:29:11.463Z,0.00
2018-08-13T02:30:11.452Z,0.00
2018-08-13T02:31:11.449Z,0.00
2018-08-13T02:32:11.436Z,0.00
2018-08-13T02:33:11.428Z,0.00
2018-08-13T02:34:11.430Z,0.00
2018-08-13T02:35:11.415Z,0.00
2018-08-13T02:36:11.405Z,0.00
2018-08-13T02:37:11.399Z,0.00
2018-08-13T02:38:11.388Z,0.00
2018-08-13T02:39:11.501Z,0.00
2018-08-13T02:40:11.369Z,0.00
2018-08-13T02:41:11.365Z,0.00
2018-08-13T02:42:11.356Z,0.00
2018-08-13T02:43:11.346Z,0.00
2018-08-13T02:44:11.337Z,0.00
2018-08-13T02:45:11.334Z,0.00
2018-08-13T02:46:11.325Z,0.00
2018-08-13T02:47:11.314Z,0.00
2018-08-13T02:48:11.313Z,0.00
2018-08-13T02:49:11.299Z,0.00
2018-08-13T02:50:11.293Z,0.00
2018-08-13T02:51:11.281Z,0.00
2018-08-13T02:52:11.277Z,0.00
2018-08-13T02:53:11.265Z,0.00
2018-08-13T02:54:11.260Z,0.00
2018-08-13T02:55:11.255Z,0.00
2018-08-13T02:56:11.241Z,0.00
2018-08-13T02:57:11.232Z,0.00
2018-08-13T02:58:11.317Z,0.00
2018-08-13T02:59:11.224Z,0.00
2018-08-13T03:00:11.206Z,0.00
2018-08-13T03:01:11.204Z,0.00
2018-08-13T03:02:11.197Z,0.00
2018-08-13T03:03:11.189Z,0.00
2018-08-13T03:04:11.189Z,0.00
2018-08-13T03:05:11.175Z,0.00
2018-08-13T03:06:11.160Z,0.00
2018-08-13T03:07:11.157Z,0.00
2018-08-13T03:08:11.140Z,0.00
2018-08-13T03:09:11.137Z,0.00
2018-08-13T03:10:11.125Z,0.00
2018-08-13T03:11:11.121Z,0.00
2018-08-13T03:12:11.111Z,0.00
2018-08-13T03:13:11.105Z,0.00
2018-08-13T03:14:11.102Z,0.00
2018-08-13T03:15:11.090Z,0.00
2018-08-13T03:16:11.076Z,0.00
2018-08-13T03:17:11.070Z,0.00
2018-08-13T03:18:11.069Z,0.00
2018-08-13T03:19:11.058Z,0.00
2018-08-13T03:20:11.045Z,0.00
2018-08-13T03:21:11.038Z,0.00
2018-08-13T03:22:11.031Z,0.00
2018-08-13T03:23:11.020Z,0.00
2018-08-13T03:24:11.008Z,0.00
2018-08-13T03:25:11.002Z,0.00
2018-08-13T03:26:10.994Z,0.00
2018-08-13T03:27:10.995Z,0.00
2018-08-13T03:28:10.978Z,0.00
2018-08-13T03:29:10.976Z,0.00
2018-08-13T03:30:11.000Z,0.00
2018-08-13T03:31:10.950Z,0.00
2018-08-13T03:32:10.947Z,0.00
2018-08-13T03:33:10.939Z,0.00
2018-08-13T03:34:10.932Z,0.00
2018-08-13T03:35:10.923Z,0.00
2018-08-13T03:36:10.913Z,0.00
2018-08-13T03:37:10.904Z,0.00
2018-08-13T03:38:10.892Z,0.00
2018-08-13T03:39:10.891Z,0.00
2018-08-13T03:40:10.889Z,0.00
2018-08-13T03:41:10.875Z,0.00
2018-08-13T03:42:10.864Z,0.00
2018-08-13T03:43:10.855Z,0.00
2018-08-13T03:44:10.847Z,0.00
2018-08-13T03:45:10.839Z,0.00
2018-08-13T03:46:10.832Z,0.00
2018-08-13T03:47:10.821Z,0.00
2018-08-13T03:48:10.814Z,0.00
2018-08-13T03:49:10.802Z,0.00
2018-08-13T03:50:10.801Z,0.00
2018-08-13T03:51:10.791Z,0.00
2018-08-13T03:52:10.779Z,0.00
2018-08-13T03:53:10.768Z,0.00
2018-08-13T03:54:10.758Z,0.00
2018-08-13T03:55:10.753Z,0.00
2018-08-13T03:56:10.746Z,0.00
2018-08-13T03:57:10.734Z,0.00
2018-08-13T03:58:10.727Z,4.00
2018-08-13T03:59:10.725Z,0.00
2018-08-13T04:00:10.707Z,0.00
2018-08-13T04:01:10.704Z,0.00
2018-08-13T04:02:10.689Z,4.00
2018-08-13T04:03:10.686Z,0.00
2018-08-13T04:04:10.682Z,0.00
2018-08-13T04:05:10.670Z,4.00
2018-08-13T04:06:10.660Z,0.00
2018-08-13T04:07:10.655Z,4.00
2018-08-13T04:08:10.645Z,4.00
2018-08-13T04:09:10.639Z,4.00
2018-08-13T04:10:10.619Z,4.00
2018-08-13T04:11:10.620Z,8.00
2018-08-13T04:12:10.611Z,4.00
2018-08-13T04:13:10.601Z,8.00
2018-08-13T04:14:10.592Z,8.00
2018-08-13T04:15:10.588Z,8.00
2018-08-13T04:16:10.576Z,12.00
2018-08-13T04:17:10.565Z,8.00
2018-08-13T04:18:10.562Z,8.00
2018-08-13T04:19:10.557Z,12.00
2018-08-13T04:20:10.550Z,12.00
2018-08-13T04:21:10.536Z,16.00
2018-08-13T04:22:10.520Z,16.00
2018-08-13T04:23:10.517Z,16.00
2018-08-13T04:24:10.505Z,16.00
2018-08-13T04:25:10.498Z,16.00
2018-08-13T04:26:10.490Z,20.00
2018-08-13T04:27:10.483Z,20.00
2018-08-13T04:28:10.472Z,24.00
2018-08-13T04:29:10.463Z,24.00
2018-08-13T04:30:10.453Z,24.00
2018-08-13T04:31:10.448Z,24.00
2018-08-13T04:32:10.441Z,24.00
2018-08-13T04:33:10.430Z,28.00
2018-08-13T04:34:10.425Z,28.00
2018-08-13T04:35:10.416Z,28.00
2018-08-13T04:36:10.406Z,28.00
2018-08-13T04:37:10.400Z,32.00
2018-08-13T04:38:10.390Z,32.00
2018-08-13T04:39:10.383Z,36.00
2018-08-13T04:40:10.369Z,32.00
2018-08-13T04:41:10.362Z,36.00
2018-08-13T04:42:10.350Z,36.00
2018-08-13T04:43:10.344Z,36.00
2018-08-13T04:44:10.338Z,36.00
2018-08-13T04:45:10.328Z,40.00
2018-08-13T04:46:10.318Z,40.00
2018-08-13T04:47:10.311Z,44.00
2018-08-13T04:48:10.303Z,40.00
2018-08-13T04:49:10.295Z,44.00
2018-08-13T04:50:10.284Z,44.00
2018-08-13T04:51:10.276Z,48.00
2018-08-13T04:52:10.313Z,48.00
2018-08-13T04:53:10.259Z,48.00
2018-08-13T04:54:10.253Z,48.00
2018-08-13T04:55:10.245Z,48.00
2018-08-13T04:56:10.233Z,52.00
2018-08-13T04:57:10.225Z,52.00
2018-08-13T04:58:10.212Z,56.00
2018-08-13T04:59:10.209Z,52.00
2018-08-13T05:00:10.199Z,52.00
2018-08-13T05:01:10.192Z,56.00
2018-08-13T05:02:10.182Z,56.00
2018-08-13T05:03:10.172Z,56.00
2018-08-13T05:04:10.164Z,60.00
2018-08-13T05:05:10.152Z,60.00
2018-08-13T05:06:10.149Z,60.00
2018-08-13T05:07:10.136Z,60.00
2018-08-13T05:08:10.130Z,60.00
2018-08-13T05:09:10.124Z,60.00
2018-08-13T05:10:10.111Z,64.00
2018-08-13T05:11:10.105Z,64.00
2018-08-13T05:12:10.099Z,64.00
2018-08-13T05:13:10.091Z,68.00
2018-08-13T05:14:10.079Z,68.00
2018-08-13T05:15:10.077Z,72.00
2018-08-13T05:16:10.063Z,72.00
2018-08-13T05:17:10.056Z,72.00
2018-08-13T05:18:10.048Z,72.00
2018-08-13T05:19:10.044Z,76.00
2018-08-13T05:20:10.032Z,76.00
2018-08-13T05:21:10.021Z,76.00
2018-08-13T05:22:10.010Z,80.00
2018-08-13T05:23:10.008Z,76.00
2018-08-13T05:24:10.037Z,80.00
2018-08-13T05:25:09.995Z,84.00
2018-08-13T05:26:09.976Z,80.00
2018-08-13T05:27:09.968Z,84.00
2018-08-13T05:28:09.963Z,88.00
2018-08-13T05:29:09.957Z,88.00
2018-08-13T05:30:09.962Z,92.00
2018-08-13T05:31:09.935Z,88.00
2018-08-13T05:32:09.930Z,88.00
2018-08-13T05:33:09.921Z,96.00
2018-08-13T05:34:09.908Z,96.00
2018-08-13T05:35:09.905Z,96.00
2018-08-13T05:36:09.897Z,96.00
2018-08-13T05:37:09.888Z,100.00
2018-08-13T05:38:09.916Z,100.00
2018-08-13T05:39:09.871Z,104.00
2018-08-13T05:40:09.858Z,104.00
2018-08-13T05:41:09.850Z,108.00
2018-08-13T05:42:09.841Z,112.00
2018-08-13T05:43:09.833Z,112.00
2018-08-13T05:44:09.825Z,116.00
2018-08-13T05:45:09.829Z,116.00
2018-08-13T05:46:09.811Z,120.00
2018-08-13T05:47:09.812Z,124.00
2018-08-13T05:48:09.789Z,124.00
2018-08-13T05:49:09.789Z,124.00
2018-08-13T05:50:09.776Z,128.00
2018-08-13T05:51:09.762Z,132.00
2018-08-13T05:52:09.759Z,136.00
2018-08-13T05:53:09.748Z,136.00
2018-08-13T05:54:09.740Z,136.00
2018-08-13T05:55:09.736Z,144.00
2018-08-13T05:56:09.726Z,144.00
2018-08-13T05:57:09.718Z,148.00
2018-08-13T05:58:09.707Z,152.00
2018-08-13T05:59:09.702Z,152.00
2018-08-13T06:00:09.692Z,152.00
2018-08-13T06:01:09.683Z,156.00
2018-08-13T06:02:09.675Z,160.00
2018-08-13T06:03:09.717Z,164.00
2018-08-13T06:04:09.658Z,164.00
2018-08-13T06:05:09.648Z,164.00
2018-08-13T06:06:09.640Z,164.00
2018-08-13T06:07:09.633Z,168.00
2018-08-13T06:08:09.623Z,172.00
2018-08-13T06:09:09.616Z,172.00
2018-08-13T06:10:09.615Z,172.00
2018-08-13T06:11:09.675Z,176.00
2018-08-13T06:12:09.589Z,176.00
2018-08-13T06:13:09.584Z,176.00
2018-08-13T06:14:09.575Z,176.00
2018-08-13T06:15:09.565Z,176.00
2018-08-13T06:16:09.562Z,180.00
2018-08-13T06:17:09.547Z,184.00
2018-08-13T06:18:09.556Z,180.00
2018-08-13T06:19:09.540Z,184.00
2018-08-13T06:20:09.529Z,184.00
2018-08-13T06:21:09.513Z,180.00
2018-08-13T06:22:09.509Z,184.00
2018-08-13T06:23:09.492Z,184.00
2018-08-13T06:24:09.553Z,196.00
2018-08-13T06:25:09.490Z,244.00
2018-08-13T06:26:09.474Z,348.00
2018-08-13T06:27:09.470Z,396.00
2018-08-13T06:28:09.513Z,392.00
2018-08-13T06:29:09.456Z,372.00
2018-08-13T06:30:09.507Z,340.00
2018-08-13T06:31:09.431Z,356.00
2018-08-13T06:32:09.431Z,364.00
2018-08-13T06:33:09.417Z,356.00
2018-08-13T06:34:09.411Z,332.00
2018-08-13T06:35:09.404Z,316.00
2018-08-13T06:36:09.395Z,284.00
2018-08-13T06:37:09.451Z,288.00
2018-08-13T06:38:09.376Z,284.00
2018-08-13T06:39:09.372Z,292.00
2018-08-13T06:40:09.360Z,276.00
2018-08-13T06:41:09.355Z,308.00
2018-08-13T06:42:09.349Z,332.00
2018-08-13T06:43:09.339Z,348.00
2018-08-13T06:44:09.327Z,332.00
2018-08-13T06:45:09.321Z,316.00
2018-08-13T06:46:09.317Z,336.00
2018-08-13T06:47:09.316Z,312.00
2018-08-13T06:48:09.296Z,300.00
2018-08-13T06:49:09.292Z,348.00
2018-08-13T06:50:09.286Z,420.00
2018-08-13T06:51:09.274Z,456.00
2018-08-13T06:52:09.268Z,480.00
2018-08-13T06:53:09.257Z,516.00
2018-08-13T06:54:09.250Z,540.00
2018-08-13T06:55:09.243Z,540.00
2018-08-13T06:56:09.234Z,532.00
2018-08-13T06:57:09.231Z,528.00
2018-08-13T06:58:09.219Z,536.00
2018-08-13T06:59:09.210Z,560.00
2018-08-13T07:00:09.213Z,584.00
2018-08-13T07:01:09.198Z,580.00
2018-08-13T07:02:09.195Z,576.00
2018-08-13T07:03:09.180Z,584.00
2018-08-13T07:04:09.176Z,572.00
2018-08-13T07:05:09.166Z,580.00
2018-08-13T07:06:09.196Z,612.00
2018-08-13T07:07:09.150Z,620.00
2018-08-13T07:08:09.143Z,636.00
2018-08-13T07:09:09.138Z,644.00
2018-08-13T07:10:09.127Z,648.00
2018-08-13T07:11:09.119Z,652.00
2018-08-13T07:12:09.113Z,656.00
2018-08-13T07:13:09.109Z,660.00
2018-08-13T07:14:09.100Z,668.00
2018-08-13T07:15:09.091Z,672.00
2018-08-13T07:16:09.081Z,676.00
2018-08-13T07:17:09.081Z,684.00
2018-08-13T07:18:09.072Z,688.00
2018-08-13T07:19:09.066Z,692.00
2018-08-13T07:20:09.059Z,696.00
2018-08-13T07:21:09.049Z,704.00
2018-08-13T07:22:09.123Z,708.00
2018-08-13T07:23:09.029Z,716.00
2018-08-13T07:24:09.029Z,724.00
2018-08-13T07:25:09.021Z,732.00
2018-08-13T07:26:09.016Z,736.00
2018-08-13T07:27:09.004Z,744.00
2018-08-13T07:28:09.022Z,748.00
2018-08-13T07:29:08.994Z,760.00
2018-08-13T07:30:08.993Z,764.00
2018-08-13T07:31:08.976Z,776.00
2018-08-13T07:32:08.971Z,780.00
2018-08-13T07:33:08.968Z,784.00
2018-08-13T07:34:08.957Z,792.00
2018-08-13T07:35:08.949Z,804.00
2018-08-13T07:36:08.948Z,808.00
2018-08-13T07:37:08.939Z,820.00
2018-08-13T07:38:08.930Z,828.00
2018-08-13T07:39:09.029Z,836.00
2018-08-13T07:40:08.921Z,844.00
2018-08-13T07:41:08.909Z,852.00
2018-08-13T07:42:08.908Z,860.00
2018-08-13T07:43:08.892Z,872.00
2018-08-13T07:44:08.895Z,880.00
2018-08-13T07:45:08.880Z,888.00
2018-08-13T07:46:08.874Z,900.00
2018-08-13T07:47:08.868Z,908.00
2018-08-13T07:48:08.864Z,920.00
2018-08-13T07:49:08.860Z,928.00
2018-08-13T07:50:08.851Z,936.00
2018-08-13T07:51:08.844Z,948.00
2018-08-13T07:52:08.841Z,960.00
2018-08-13T07:53:08.833Z,968.00
2018-08-13T07:54:08.828Z,976.00
2018-08-13T07:55:08.816Z,988.00
2018-08-13T07:56:08.812Z,992.00
2018-08-13T07:57:08.802Z,1004.00
2018-08-13T07:58:08.799Z,1016.00
2018-08-13T07:59:08.790Z,1028.00
2018-08-13T08:00:08.857Z,1036.00
2018-08-13T08:01:08.785Z,1044.00
2018-08-13T08:02:08.779Z,1044.00
2018-08-13T08:03:08.775Z,1044.00
2018-08-13T08:04:08.760Z,1048.00
2018-08-13T08:05:08.756Z,1060.00
2018-08-13T08:06:08.757Z,1056.00
2018-08-13T08:07:08.742Z,1076.00
2018-08-13T08:08:08.739Z,1092.00
2018-08-13T08:09:08.742Z,1116.00
2018-08-13T08:10:08.726Z,1116.00
2018-08-13T08:11:08.720Z,1116.00
2018-08-13T08:12:08.711Z,1112.00
2018-08-13T08:13:08.706Z,1092.00
2018-08-13T08:14:08.703Z,1096.00
2018-08-13T08:15:08.697Z,1100.00
2018-08-13T08:16:08.693Z,1092.00
2018-08-13T08:17:08.685Z,1080.00
2018-08-13T08:18:08.685Z,1040.00
2018-08-13T08:19:08.673Z,1044.00
2018-08-13T08:20:08.669Z,1076.00
2018-08-13T08:21:08.661Z,1116.00
2018-08-13T08:22:08.657Z,1172.00
2018-08-13T08:23:08.646Z,1180.00
2018-08-13T08:24:08.640Z,1204.00
2018-08-13T08:25:08.646Z,1204.00
2018-08-13T08:26:08.631Z,1212.00
2018-08-13T08:27:08.627Z,1216.00
2018-08-13T08:28:08.621Z,1236.00
2018-08-13T08:29:08.615Z,1248.00
2018-08-13T08:30:08.614Z,1252.00
2018-08-13T08:31:08.602Z,1280.00
2018-08-13T08:32:08.597Z,1264.00
2018-08-13T08:33:08.589Z,1264.00
2018-08-13T08:34:08.583Z,1228.00
2018-08-13T08:35:08.581Z,1200.00
2018-08-13T08:36:08.574Z,1236.00
2018-08-13T08:37:08.577Z,1240.00
2018-08-13T08:38:08.565Z,1228.00
2018-08-13T08:39:08.562Z,1068.00
2018-08-13T08:40:08.555Z,1100.00
2018-08-13T08:41:08.545Z,1176.00
2018-08-13T08:42:08.545Z,1224.00
2018-08-13T08:43:08.539Z,1280.00
2018-08-13T08:44:08.529Z,688.00
2018-08-13T08:45:08.527Z,1228.00
2018-08-13T08:46:08.516Z,1212.00
2018-08-13T08:47:08.529Z,1180.00
2018-08-13T08:48:08.506Z,1168.00
2018-08-13T08:49:08.504Z,1084.00
2018-08-13T08:50:08.498Z,1236.00
2018-08-13T08:51:08.490Z,1232.00
2018-08-13T08:52:08.489Z,1224.00
2018-08-13T08:53:08.474Z,1280.00
2018-08-13T08:54:08.469Z,1288.00
2018-08-13T08:55:08.465Z,1272.00
2018-08-13T08:56:08.457Z,1304.00
2018-08-13T08:57:08.461Z,1280.00
2018-08-13T08:58:08.447Z,1344.00
2018-08-13T08:59:08.440Z,1420.00
2018-08-13T09:00:08.441Z,1416.00
2018-08-13T09:01:08.430Z,1360.00
2018-08-13T09:02:08.425Z,1368.00
2018-08-13T09:03:08.419Z,1336.00
2018-08-13T09:04:08.416Z,1268.00
2018-08-13T09:05:08.404Z,1108.00
2018-08-13T09:06:08.406Z,896.00
2018-08-13T09:07:08.397Z,544.00
2018-08-13T09:08:08.389Z,1456.00
2018-08-13T09:09:08.391Z,1412.00
2018-08-13T09:10:08.382Z,1328.00
2018-08-13T09:11:08.374Z,1316.00
2018-08-13T09:12:08.370Z,1392.00
2018-08-13T09:13:08.363Z,1472.00
2018-08-13T09:14:08.397Z,1440.00
2018-08-13T09:15:08.350Z,1588.00
2018-08-13T09:16:08.346Z,1596.00
2018-08-13T09:17:08.339Z,1312.00
2018-08-13T09:18:08.337Z,1580.00
2018-08-13T09:19:08.389Z,1584.00
2018-08-13T09:20:08.323Z,520.00
2018-08-13T09:21:08.319Z,524.00
2018-08-13T09:22:08.314Z,532.00
2018-08-13T09:23:08.305Z,596.00
2018-08-13T09:24:08.306Z,916.00
2018-08-13T09:25:08.300Z,524.00
2018-08-13T09:26:08.292Z,636.00
2018-08-13T09:27:08.287Z,656.00
2018-08-13T09:28:08.287Z,972.00
2018-08-13T09:29:08.275Z,472.00
2018-08-13T09:30:08.278Z,464.00
2018-08-13T09:31:08.264Z,468.00
2018-08-13T09:32:08.260Z,480.00
2018-08-13T09:33:08.260Z,500.00
2018-08-13T09:34:08.249Z,568.00
2018-08-13T09:35:08.252Z,588.00
2018-08-13T09:36:08.237Z,1100.00
2018-08-13T09:37:08.233Z,556.00
2018-08-13T09:38:08.229Z,596.00
2018-08-13T09:39:08.225Z,548.00
2018-08-13T09:40:08.215Z,588.00
2018-08-13T09:41:08.219Z,660.00
2018-08-13T09:42:08.204Z,648.00
2018-08-13T09:43:08.204Z,900.00
2018-08-13T09:44:08.196Z,752.00
2018-08-13T09:45:08.183Z,788.00
2018-08-13T09:46:08.180Z,1732.00
2018-08-13T09:47:08.173Z,1740.00
2018-08-13T09:48:08.239Z,1748.00
2018-08-13T09:49:08.172Z,1560.00
2018-08-13T09:50:08.157Z,832.00
2018-08-13T09:51:08.156Z,768.00
2018-08-13T09:52:08.153Z,588.00
2018-08-13T09:53:08.146Z,544.00
2018-08-13T09:54:08.138Z,520.00
2018-08-13T09:55:08.129Z,500.00
2018-08-13T09:56:08.125Z,500.00
2018-08-13T09:57:08.120Z,504.00
2018-08-13T09:58:08.117Z,520.00
2018-08-13T09:59:08.111Z,548.00
2018-08-13T10:00:08.115Z,580.00
2018-08-13T10:01:08.099Z,612.00
2018-08-13T10:02:08.092Z,620.00
2018-08-13T10:03:08.089Z,624.00
2018-08-13T10:04:08.080Z,636.00
2018-08-13T10:05:08.079Z,732.00
2018-08-13T10:06:08.077Z,1136.00
2018-08-13T10:07:08.071Z,712.00
2018-08-13T10:08:08.061Z,720.00
2018-08-13T10:09:08.059Z,756.00
2018-08-13T10:10:08.055Z,748.00
2018-08-13T10:11:08.047Z,764.00
2018-08-13T10:12:08.042Z,728.00
2018-08-13T10:13:08.032Z,696.00
2018-08-13T10:14:08.026Z,668.00
2018-08-13T10:15:08.024Z,648.00
2018-08-13T10:16:08.017Z,636.00
2018-08-13T10:17:08.017Z,596.00
2018-08-13T10:18:08.003Z,560.00
2018-08-13T10:19:08.001Z,532.00
2018-08-13T10:20:07.993Z,500.00
2018-08-13T10:21:07.989Z,476.00
2018-08-13T10:22:07.986Z,452.00
2018-08-13T10:23:07.978Z,436.00
2018-08-13T10:24:07.973Z,428.00
2018-08-13T10:25:07.968Z,420.00
2018-08-13T10:26:07.959Z,408.00
2018-08-13T10:27:07.956Z,400.00
2018-08-13T10:28:07.951Z,392.00
2018-08-13T10:29:07.942Z,380.00
2018-08-13T10:30:07.943Z,364.00
2018-08-13T10:31:07.940Z,340.00
2018-08-13T10:32:07.929Z,308.00
2018-08-13T10:33:07.921Z,284.00
2018-08-13T10:34:07.917Z,256.00
2018-08-13T10:35:07.911Z,240.00
2018-08-13T10:36:07.908Z,232.00
2018-08-13T10:37:07.903Z,228.00
2018-08-13T10:38:07.898Z,228.00
2018-08-13T10:39:07.891Z,228.00
2018-08-13T10:40:07.883Z,232.00
2018-08-13T10:41:07.885Z,232.00
2018-08-13T10:42:07.873Z,236.00
2018-08-13T10:43:07.867Z,252.00
2018-08-13T10:44:07.862Z,268.00
2018-08-13T10:45:07.851Z,284.00
2018-08-13T10:46:07.848Z,300.00
2018-08-13T10:47:07.845Z,320.00
2018-08-13T10:48:07.837Z,348.00
2018-08-13T10:49:07.829Z,380.00
2018-08-13T10:50:07.825Z,424.00
2018-08-13T10:51:07.820Z,464.00
2018-08-13T10:52:07.821Z,520.00
2018-08-13T10:53:07.809Z,568.00
2018-08-13T10:54:07.805Z,588.00
2018-08-13T10:55:07.799Z,584.00
2018-08-13T10:56:07.833Z,568.00
2018-08-13T10:57:07.790Z,548.00
2018-08-13T10:58:07.778Z,532.00
2018-08-13T10:59:07.776Z,512.00
2018-08-13T11:00:07.778Z,492.00
2018-08-13T11:01:07.786Z,484.00
2018-08-13T11:02:07.751Z,484.00
2018-08-13T11:03:07.819Z,496.00
2018-08-13T11:04:07.740Z,512.00
2018-08-13T11:05:07.739Z,528.00
2018-08-13T11:06:07.733Z,540.00
2018-08-13T11:07:07.726Z,556.00
2018-08-13T11:08:07.717Z,560.00
2018-08-13T11:09:07.708Z,564.00
2018-08-13T11:10:07.708Z,560.00
2018-08-13T11:11:07.714Z,552.00
2018-08-13T11:12:07.694Z,540.00
2018-08-13T11:13:07.687Z,520.00
2018-08-13T11:14:07.685Z,488.00
2018-08-13T11:15:07.681Z,460.00
2018-08-13T11:16:07.680Z,436.00
2018-08-13T11:17:07.667Z,420.00
2018-08-13T11:18:07.661Z,420.00
2018-08-13T11:19:07.652Z,428.00
2018-08-13T11:20:07.652Z,448.00
2018-08-13T11:21:07.647Z,480.00
2018-08-13T11:22:07.640Z,520.00
2018-08-13T11:23:07.634Z,552.00
2018-08-13T11:24:07.622Z,592.00
2018-08-13T11:25:07.610Z,624.00
2018-08-13T11:26:07.615Z,652.00
2018-08-13T11:27:07.605Z,672.00
2018-08-13T11:28:07.597Z,692.00
2018-08-13T11:29:07.588Z,712.00
2018-08-13T11:30:07.583Z,740.00
2018-08-13T11:31:07.622Z,776.00
2018-08-13T11:32:07.569Z,808.00
2018-08-13T11:33:07.567Z,844.00
2018-08-13T11:34:07.563Z,896.00
2018-08-13T11:35:07.553Z,936.00
2018-08-13T11:36:07.543Z,944.00
2018-08-13T11:37:07.541Z,900.00
2018-08-13T11:38:07.527Z,848.00
2018-08-13T11:39:07.527Z,772.00
2018-08-13T11:40:07.521Z,728.00
2018-08-13T11:41:07.515Z,712.00
2018-08-13T11:42:07.518Z,720.00
2018-08-13T11:43:07.506Z,736.00
2018-08-13T11:44:07.495Z,768.00
2018-08-13T11:45:07.487Z,812.00
2018-08-13T11:46:07.483Z,880.00
2018-08-13T11:47:07.485Z,964.00
2018-08-13T11:48:07.470Z,1176.00
2018-08-13T11:49:07.462Z,1100.00
2018-08-13T11:50:07.454Z,940.00
2018-08-13T11:51:07.446Z,836.00
2018-08-13T11:52:07.442Z,792.00
2018-08-13T11:53:07.438Z,744.00
2018-08-13T11:54:07.435Z,696.00
2018-08-13T11:55:07.432Z,656.00
2018-08-13T11:56:07.421Z,624.00
2018-08-13T11:57:07.418Z,612.00
2018-08-13T11:58:07.416Z,608.00
2018-08-13T11:59:07.410Z,608.00
2018-08-13T12:00:07.400Z,620.00
2018-08-13T12:01:07.436Z,636.00
2018-08-13T12:02:07.451Z,660.00
2018-08-13T12:03:07.376Z,660.00
2018-08-13T12:04:07.376Z,680.00
2018-08-13T12:05:07.364Z,692.00
2018-08-13T12:06:07.373Z,696.00
2018-08-13T12:07:07.357Z,696.00
2018-08-13T12:08:07.351Z,688.00
2018-08-13T12:09:07.346Z,680.00
2018-08-13T12:10:07.340Z,664.00
2018-08-13T12:11:07.335Z,644.00
2018-08-13T12:12:07.333Z,616.00
2018-08-13T12:13:07.323Z,588.00
2018-08-13T12:14:07.401Z,556.00
2018-08-13T12:15:07.313Z,520.00
2018-08-13T12:16:07.306Z,488.00
2018-08-13T12:17:07.294Z,460.00
2018-08-13T12:18:07.294Z,432.00
2018-08-13T12:19:07.285Z,412.00
2018-08-13T12:20:07.282Z,392.00
2018-08-13T12:21:07.276Z,376.00
2018-08-13T12:22:07.274Z,356.00
2018-08-13T12:23:07.266Z,336.00
2018-08-13T12:24:07.258Z,324.00
2018-08-13T12:25:07.260Z,312.00
2018-08-13T12:26:07.249Z,296.00
2018-08-13T12:27:07.243Z,276.00
2018-08-13T12:28:07.236Z,264.00
2018-08-13T12:29:07.223Z,252.00
2018-08-13T12:30:07.225Z,244.00
2018-08-13T12:31:07.219Z,232.00
2018-08-13T12:32:07.209Z,224.00
2018-08-13T12:33:07.198Z,224.00
2018-08-13T12:34:07.195Z,228.00
2018-08-13T12:35:07.190Z,228.00
2018-08-13T12:36:07.191Z,236.00
2018-08-13T12:37:07.180Z,236.00
2018-08-13T12:38:07.182Z,240.00
2018-08-13T12:39:07.166Z,236.00
2018-08-13T12:40:07.165Z,236.00
2018-08-13T12:41:07.250Z,228.00
2018-08-13T12:42:07.147Z,220.00
2018-08-13T12:43:07.141Z,216.00
2018-08-13T12:44:07.133Z,204.00